sensor_id;sensor_type;location;lat;lon;timestamp;P1;durP1;ratioP1;P2;durP2;ratioP2
5876;SDS011;2964;42.144;24.730;2023-04-25T00:01:00;6.23;;;5.83;;
5876;SDS011;2964;42.144;24.730;2023-04-25T00:03:27;6.60;;;6.20;;
5876;SDS011;2964;42.144;24.730;2023-04-25T00:05:54;6.17;;;5.77;;
5876;SDS011;2964;42.144;24.730;2023-04-25T00:08:21;5.77;;;5.47;;
5876;SDS011;2964;42.144;24.730;2023-04-25T00:10:50;5.57;;;5.27;;
5876;SDS011;2964;42.144;24.730;2023-04-25T00:13:16;5.57;;;5.27;;
5876;SDS011;2964;42.144;24.730;2023-04-25T00:15:44;5.80;;;5.57;;
5876;SDS011;2964;42.144;24.730;2023-04-25T00:18:11;6.17;;;5.73;;
5876;SDS011;2964;42.144;24.730;2023-04-25T00:20:38;6.27;;;5.97;;
5876;SDS011;2964;42.144;24.730;2023-04-25T00:23:04;6.13;;;5.83;;
5876;SDS011;2964;42.144;24.730;2023-04-25T00:25:31;6.30;;;6.00;;
5876;SDS011;2964;42.144;24.730;2023-04-25T00:27:59;5.90;;;5.50;;
5876;SDS011;2964;42.144;24.730;2023-04-25T00:30:26;6.60;;;6.20;;
5876;SDS011;2964;42.144;24.730;2023-04-25T00:32:52;5.83;;;5.53;;
5876;SDS011;2964;42.144;24.730;2023-04-25T00:35:19;5.33;;;5.07;;
5876;SDS011;2964;42.144;24.730;2023-04-25T00:37:46;6.03;;;5.63;;
5876;SDS011;2964;42.144;24.730;2023-04-25T00:40:12;5.70;;;5.40;;
5876;SDS011;2964;42.144;24.730;2023-04-25T00:42:39;5.80;;;5.50;;
5876;SDS011;2964;42.144;24.730;2023-04-25T00:45:09;5.80;;;5.40;;
5876;SDS011;2964;42.144;24.730;2023-04-25T00:47:40;5.47;;;5.20;;
5876;SDS011;2964;42.144;24.730;2023-04-25T00:50:08;7.73;;;6.33;;
5876;SDS011;2964;42.144;24.730;2023-04-25T00:52:35;6.33;;;5.93;;
5876;SDS011;2964;42.144;24.730;2023-04-25T00:55:03;5.97;;;5.67;;
5876;SDS011;2964;42.144;24.730;2023-04-25T00:57:31;6.53;;;6.07;;
5876;SDS011;2964;42.144;24.730;2023-04-25T00:59:58;5.53;;;5.13;;
5876;SDS011;2964;42.144;24.730;2023-04-25T01:02:26;6.37;;;6.07;;
5876;SDS011;2964;42.144;24.730;2023-04-25T01:04:53;6.47;;;6.17;;
5876;SDS011;2964;42.144;24.730;2023-04-25T01:07:20;6.77;;;6.47;;
5876;SDS011;2964;42.144;24.730;2023-04-25T01:09:47;6.93;;;6.53;;
5876;SDS011;2964;42.144;24.730;2023-04-25T01:12:14;6.27;;;5.97;;
5876;SDS011;2964;42.144;24.730;2023-04-25T01:14:40;7.40;;;6.73;;
5876;SDS011;2964;42.144;24.730;2023-04-25T01:17:07;7.10;;;6.40;;
5876;SDS011;2964;42.144;24.730;2023-04-25T01:19:36;7.97;;;7.40;;
5876;SDS011;2964;42.144;24.730;2023-04-25T01:22:04;7.53;;;6.90;;
5876;SDS011;2964;42.144;24.730;2023-04-25T01:24:32;7.60;;;7.20;;
5876;SDS011;2964;42.144;24.730;2023-04-25T01:26:58;7.40;;;6.80;;
5876;SDS011;2964;42.144;24.730;2023-04-25T01:29:27;7.93;;;7.43;;
5876;SDS011;2964;42.144;24.730;2023-04-25T01:31:55;8.23;;;7.73;;
5876;SDS011;2964;42.144;24.730;2023-04-25T01:34:23;7.37;;;6.97;;
5876;SDS011;2964;42.144;24.730;2023-04-25T01:36:51;8.13;;;7.63;;
5876;SDS011;2964;42.144;24.730;2023-04-25T01:39:20;8.53;;;7.93;;
5876;SDS011;2964;42.144;24.730;2023-04-25T01:41:47;9.07;;;8.27;;
5876;SDS011;2964;42.144;24.730;2023-04-25T01:44:14;9.10;;;8.30;;
5876;SDS011;2964;42.144;24.730;2023-04-25T01:46:41;8.83;;;8.23;;
5876;SDS011;2964;42.144;24.730;2023-04-25T01:49:08;9.07;;;8.37;;
5876;SDS011;2964;42.144;24.730;2023-04-25T01:51:35;8.70;;;8.10;;
5876;SDS011;2964;42.144;24.730;2023-04-25T01:54:01;8.80;;;8.03;;
5876;SDS011;2964;42.144;24.730;2023-04-25T01:56:31;8.70;;;8.20;;
5876;SDS011;2964;42.144;24.730;2023-04-25T01:58:58;8.53;;;8.03;;
5876;SDS011;2964;42.144;24.730;2023-04-25T02:01:25;9.00;;;8.27;;
5876;SDS011;2964;42.144;24.730;2023-04-25T02:03:52;7.70;;;7.10;;
5876;SDS011;2964;42.144;24.730;2023-04-25T02:06:18;7.77;;;7.27;;
5876;SDS011;2964;42.144;24.730;2023-04-25T02:08:45;8.50;;;7.93;;
5876;SDS011;2964;42.144;24.730;2023-04-25T02:11:12;8.27;;;7.77;;
5876;SDS011;2964;42.144;24.730;2023-04-25T02:13:40;9.37;;;8.57;;
5876;SDS011;2964;42.144;24.730;2023-04-25T02:16:06;9.30;;;8.47;;
5876;SDS011;2964;42.144;24.730;2023-04-25T02:18:33;9.63;;;8.80;;
5876;SDS011;2964;42.144;24.730;2023-04-25T02:21:02;10.10;;;9.17;;
5876;SDS011;2964;42.144;24.730;2023-04-25T02:23:29;10.30;;;9.40;;
5876;SDS011;2964;42.144;24.730;2023-04-25T02:25:56;9.83;;;9.03;;
5876;SDS011;2964;42.144;24.730;2023-04-25T02:28:23;10.23;;;9.43;;
5876;SDS011;2964;42.144;24.730;2023-04-25T02:30:52;10.33;;;9.43;;
5876;SDS011;2964;42.144;24.730;2023-04-25T02:33:18;11.17;;;10.17;;
5876;SDS011;2964;42.144;24.730;2023-04-25T02:35:46;11.23;;;10.33;;
5876;SDS011;2964;42.144;24.730;2023-04-25T02:38:12;11.73;;;10.63;;
5876;SDS011;2964;42.144;24.730;2023-04-25T02:40:39;12.47;;;11.30;;
5876;SDS011;2964;42.144;24.730;2023-04-25T02:43:06;11.30;;;10.23;;
5876;SDS011;2964;42.144;24.730;2023-04-25T02:45:33;9.97;;;9.23;;
5876;SDS011;2964;42.144;24.730;2023-04-25T02:48:01;10.90;;;10.10;;
5876;SDS011;2964;42.144;24.730;2023-04-25T02:50:28;10.17;;;9.27;;
5876;SDS011;2964;42.144;24.730;2023-04-25T02:52:55;11.30;;;10.30;;
5876;SDS011;2964;42.144;24.730;2023-04-25T02:55:21;10.90;;;9.90;;
5876;SDS011;2964;42.144;24.730;2023-04-25T02:57:48;11.53;;;10.53;;
5876;SDS011;2964;42.144;24.730;2023-04-25T03:00:15;12.70;;;10.63;;
5876;SDS011;2964;42.144;24.730;2023-04-25T03:02:42;12.23;;;11.07;;
5876;SDS011;2964;42.144;24.730;2023-04-25T03:05:10;11.60;;;10.50;;
5876;SDS011;2964;42.144;24.730;2023-04-25T03:07:36;13.63;;;12.20;;
5876;SDS011;2964;42.144;24.730;2023-04-25T03:10:04;13.70;;;12.30;;
5876;SDS011;2964;42.144;24.730;2023-04-25T03:12:32;12.73;;;11.53;;
5876;SDS011;2964;42.144;24.730;2023-04-25T03:14:59;12.53;;;11.33;;
5876;SDS011;2964;42.144;24.730;2023-04-25T03:17:25;13.03;;;11.53;;
5876;SDS011;2964;42.144;24.730;2023-04-25T03:19:52;11.77;;;10.57;;
5876;SDS011;2964;42.144;24.730;2023-04-25T03:22:20;12.93;;;11.77;;
5876;SDS011;2964;42.144;24.730;2023-04-25T03:24:47;13.53;;;12.13;;
5876;SDS011;2964;42.144;24.730;2023-04-25T03:27:14;13.80;;;12.33;;
5876;SDS011;2964;42.144;24.730;2023-04-25T03:29:41;13.73;;;12.13;;
5876;SDS011;2964;42.144;24.730;2023-04-25T03:32:07;13.23;;;11.87;;
5876;SDS011;2964;42.144;24.730;2023-04-25T03:34:34;14.77;;;12.27;;
5876;SDS011;2964;42.144;24.730;2023-04-25T03:37:01;13.50;;;12.10;;
5876;SDS011;2964;42.144;24.730;2023-04-25T03:39:29;12.30;;;11.00;;
5876;SDS011;2964;42.144;24.730;2023-04-25T03:41:55;12.93;;;11.73;;
5876;SDS011;2964;42.144;24.730;2023-04-25T03:44:22;13.60;;;12.23;;
5876;SDS011;2964;42.144;24.730;2023-04-25T03:46:50;13.50;;;12.13;;
5876;SDS011;2964;42.144;24.730;2023-04-25T03:49:16;14.73;;;12.17;;
5876;SDS011;2964;42.144;24.730;2023-04-25T03:51:43;14.27;;;12.33;;
5876;SDS011;2964;42.144;24.730;2023-04-25T03:54:10;14.00;;;12.63;;
5876;SDS011;2964;42.144;24.730;2023-04-25T03:56:38;18.33;;;13.40;;
5876;SDS011;2964;42.144;24.730;2023-04-25T03:59:05;15.07;;;13.33;;
5876;SDS011;2964;42.144;24.730;2023-04-25T04:01:32;14.80;;;12.90;;
5876;SDS011;2964;42.144;24.730;2023-04-25T04:03:59;13.97;;;12.43;;
5876;SDS011;2964;42.144;24.730;2023-04-25T04:06:25;14.97;;;13.47;;
5876;SDS011;2964;42.144;24.730;2023-04-25T04:08:52;15.70;;;13.93;;
5876;SDS011;2964;42.144;24.730;2023-04-25T04:11:19;15.93;;;14.30;;
5876;SDS011;2964;42.144;24.730;2023-04-25T04:13:47;19.00;;;14.93;;
5876;SDS011;2964;42.144;24.730;2023-04-25T04:16:14;15.80;;;14.13;;
5876;SDS011;2964;42.144;24.730;2023-04-25T04:18:41;17.70;;;13.93;;
5876;SDS011;2964;42.144;24.730;2023-04-25T04:21:07;18.33;;;14.60;;
5876;SDS011;2964;42.144;24.730;2023-04-25T04:23:34;15.23;;;13.63;;
5876;SDS011;2964;42.144;24.730;2023-04-25T04:26:01;17.30;;;15.30;;
5876;SDS011;2964;42.144;24.730;2023-04-25T04:28:28;16.03;;;14.40;;
5876;SDS011;2964;42.144;24.730;2023-04-25T04:30:56;18.67;;;15.53;;
5876;SDS011;2964;42.144;24.730;2023-04-25T04:33:22;16.70;;;14.97;;
5876;SDS011;2964;42.144;24.730;2023-04-25T04:35:50;16.33;;;14.77;;
5876;SDS011;2964;42.144;24.730;2023-04-25T04:38:18;16.47;;;14.77;;
5876;SDS011;2964;42.144;24.730;2023-04-25T04:40:46;16.10;;;14.50;;
5876;SDS011;2964;42.144;24.730;2023-04-25T04:43:13;15.43;;;13.93;;
5876;SDS011;2964;42.144;24.730;2023-04-25T04:45:42;15.53;;;13.80;;
5876;SDS011;2964;42.144;24.730;2023-04-25T04:48:11;16.53;;;13.10;;
5876;SDS011;2964;42.144;24.730;2023-04-25T04:50:39;12.67;;;11.57;;
5876;SDS011;2964;42.144;24.730;2023-04-25T04:53:06;13.50;;;12.20;;
5876;SDS011;2964;42.144;24.730;2023-04-25T04:55:33;14.17;;;12.87;;
5876;SDS011;2964;42.144;24.730;2023-04-25T04:58:00;14.33;;;13.03;;
5876;SDS011;2964;42.144;24.730;2023-04-25T05:00:27;15.53;;;12.77;;
5876;SDS011;2964;42.144;24.730;2023-04-25T05:02:54;14.43;;;13.20;;
5876;SDS011;2964;42.144;24.730;2023-04-25T05:05:22;14.70;;;13.47;;
5876;SDS011;2964;42.144;24.730;2023-04-25T05:07:49;16.10;;;14.60;;
5876;SDS011;2964;42.144;24.730;2023-04-25T05:10:16;14.70;;;13.33;;
5876;SDS011;2964;42.144;24.730;2023-04-25T05:12:43;17.83;;;14.97;;
5876;SDS011;2964;42.144;24.730;2023-04-25T05:15:10;15.77;;;14.07;;
5876;SDS011;2964;42.144;24.730;2023-04-25T05:17:37;15.47;;;13.87;;
5876;SDS011;2964;42.144;24.730;2023-04-25T05:20:04;16.17;;;14.50;;
5876;SDS011;2964;42.144;24.730;2023-04-25T05:22:33;15.63;;;14.10;;
5876;SDS011;2964;42.144;24.730;2023-04-25T05:25:00;17.93;;;14.53;;
5876;SDS011;2964;42.144;24.730;2023-04-25T05:27:27;17.03;;;14.40;;
5876;SDS011;2964;42.144;24.730;2023-04-25T05:29:54;16.73;;;15.03;;
5876;SDS011;2964;42.144;24.730;2023-04-25T05:32:20;16.67;;;14.10;;
5876;SDS011;2964;42.144;24.730;2023-04-25T05:34:47;15.50;;;14.13;;
5876;SDS011;2964;42.144;24.730;2023-04-25T05:37:14;14.53;;;13.23;;
5876;SDS011;2964;42.144;24.730;2023-04-25T05:39:42;14.40;;;13.03;;
5876;SDS011;2964;42.144;24.730;2023-04-25T05:42:09;13.40;;;12.23;;
5876;SDS011;2964;42.144;24.730;2023-04-25T05:44:35;13.43;;;12.03;;
5876;SDS011;2964;42.144;24.730;2023-04-25T05:47:02;13.57;;;12.47;;
5876;SDS011;2964;42.144;24.730;2023-04-25T05:49:30;14.87;;;13.33;;
5876;SDS011;2964;42.144;24.730;2023-04-25T05:51:56;13.27;;;12.13;;
5876;SDS011;2964;42.144;24.730;2023-04-25T05:54:23;10.47;;;9.67;;
5876;SDS011;2964;42.144;24.730;2023-04-25T05:56:51;11.53;;;10.57;;
5876;SDS011;2964;42.144;24.730;2023-04-25T05:59:18;10.73;;;9.90;;
5876;SDS011;2964;42.144;24.730;2023-04-25T06:01:45;11.30;;;10.03;;
5876;SDS011;2964;42.144;24.730;2023-04-25T06:04:11;10.93;;;9.83;;
5876;SDS011;2964;42.144;24.730;2023-04-25T06:06:38;9.27;;;8.67;;
5876;SDS011;2964;42.144;24.730;2023-04-25T06:09:05;12.70;;;11.50;;
5876;SDS011;2964;42.144;24.730;2023-04-25T06:11:31;9.17;;;8.60;;
5876;SDS011;2964;42.144;24.730;2023-04-25T06:13:59;12.33;;;9.67;;
5876;SDS011;2964;42.144;24.730;2023-04-25T06:16:26;9.23;;;8.53;;
5876;SDS011;2964;42.144;24.730;2023-04-25T06:18:53;9.67;;;8.77;;
5876;SDS011;2964;42.144;24.730;2023-04-25T06:21:19;9.53;;;9.03;;
5876;SDS011;2964;42.144;24.730;2023-04-25T06:23:46;14.03;;;10.83;;
5876;SDS011;2964;42.144;24.730;2023-04-25T06:26:13;11.03;;;10.27;;
5876;SDS011;2964;42.144;24.730;2023-04-25T06:28:39;12.77;;;9.87;;
5876;SDS011;2964;42.144;24.730;2023-04-25T06:31:07;10.73;;;9.77;;
5876;SDS011;2964;42.144;24.730;2023-04-25T06:33:34;11.37;;;9.80;;
5876;SDS011;2964;42.144;24.730;2023-04-25T06:36:01;10.70;;;9.50;;
5876;SDS011;2964;42.144;24.730;2023-04-25T06:38:28;13.53;;;12.33;;
5876;SDS011;2964;42.144;24.730;2023-04-25T06:40:54;14.00;;;11.47;;
5876;SDS011;2964;42.144;24.730;2023-04-25T06:43:21;11.70;;;10.80;;
5876;SDS011;2964;42.144;24.730;2023-04-25T06:45:48;11.50;;;10.27;;
5876;SDS011;2964;42.144;24.730;2023-04-25T06:48:17;13.07;;;12.17;;
5876;SDS011;2964;42.144;24.730;2023-04-25T06:50:49;11.63;;;10.60;;
5876;SDS011;2964;42.144;24.730;2023-04-25T06:53:15;11.55;;;10.35;;
5876;SDS011;2964;42.144;24.730;2023-04-25T06:55:42;20.08;;;12.85;;
5876;SDS011;2964;42.144;24.730;2023-04-25T06:58:09;13.37;;;12.03;;
5876;SDS011;2964;42.144;24.730;2023-04-25T07:00:35;12.50;;;11.50;;
5876;SDS011;2964;42.144;24.730;2023-04-25T07:03:02;11.77;;;10.60;;
5876;SDS011;2964;42.144;24.730;2023-04-25T07:05:30;12.53;;;10.50;;
5876;SDS011;2964;42.144;24.730;2023-04-25T07:07:57;11.93;;;10.97;;
5876;SDS011;2964;42.144;24.730;2023-04-25T07:10:23;10.90;;;9.90;;
5876;SDS011;2964;42.144;24.730;2023-04-25T07:12:50;13.20;;;10.83;;
5876;SDS011;2964;42.144;24.730;2023-04-25T07:15:17;11.83;;;10.53;;
5876;SDS011;2964;42.144;24.730;2023-04-25T07:17:44;12.80;;;11.30;;
5876;SDS011;2964;42.144;24.730;2023-04-25T07:20:11;18.37;;;10.57;;
5876;SDS011;2964;42.144;24.730;2023-04-25T07:22:39;9.13;;;8.63;;
5876;SDS011;2964;42.144;24.730;2023-04-25T07:25:06;9.20;;;8.35;;
5876;SDS011;2964;42.144;24.730;2023-04-25T07:27:33;9.20;;;8.68;;
5876;SDS011;2964;42.144;24.730;2023-04-25T07:30:00;16.42;;;8.48;;
5876;SDS011;2964;42.144;24.730;2023-04-25T07:32:27;9.00;;;8.05;;
5876;SDS011;2964;42.144;24.730;2023-04-25T07:34:54;8.25;;;7.82;;
5876;SDS011;2964;42.144;24.730;2023-04-25T07:37:20;8.80;;;8.00;;
5876;SDS011;2964;42.144;24.730;2023-04-25T07:39:48;11.50;;;10.45;;
5876;SDS011;2964;42.144;24.730;2023-04-25T07:42:15;7.90;;;7.20;;
5876;SDS011;2964;42.144;24.730;2023-04-25T07:44:41;8.38;;;7.78;;
5876;SDS011;2964;42.144;24.730;2023-04-25T07:47:08;8.30;;;7.53;;
5876;SDS011;2964;42.144;24.730;2023-04-25T07:49:36;8.10;;;7.53;;
5876;SDS011;2964;42.144;24.730;2023-04-25T07:52:04;13.43;;;8.47;;
5876;SDS011;2964;42.144;24.730;2023-04-25T07:54:31;8.83;;;8.03;;
5876;SDS011;2964;42.144;24.730;2023-04-25T07:57:00;16.60;;;8.70;;
5876;SDS011;2964;42.144;24.730;2023-04-25T07:59:27;8.95;;;8.07;;
5876;SDS011;2964;42.144;24.730;2023-04-25T08:01:54;7.53;;;7.00;;
5876;SDS011;2964;42.144;24.730;2023-04-25T08:04:22;6.47;;;6.03;;
5876;SDS011;2964;42.144;24.730;2023-04-25T08:06:49;7.47;;;6.72;;
5876;SDS011;2964;42.144;24.730;2023-04-25T08:09:15;6.25;;;5.95;;
5876;SDS011;2964;42.144;24.730;2023-04-25T08:11:42;7.07;;;6.68;;
5876;SDS011;2964;42.144;24.730;2023-04-25T08:14:10;7.03;;;6.47;;
5876;SDS011;2964;42.144;24.730;2023-04-25T08:16:37;7.03;;;6.47;;
5876;SDS011;2964;42.144;24.730;2023-04-25T08:19:04;6.93;;;6.53;;
5876;SDS011;2964;42.144;24.730;2023-04-25T08:21:31;8.60;;;7.90;;
5876;SDS011;2964;42.144;24.730;2023-04-25T08:23:57;8.82;;;8.25;;
5876;SDS011;2964;42.144;24.730;2023-04-25T08:26:24;5.78;;;5.47;;
5876;SDS011;2964;42.144;24.730;2023-04-25T08:28:51;6.90;;;6.30;;
5876;SDS011;2964;42.144;24.730;2023-04-25T08:31:19;6.07;;;5.78;;
5876;SDS011;2964;42.144;24.730;2023-04-25T08:33:46;4.57;;;4.38;;
5876;SDS011;2964;42.144;24.730;2023-04-25T08:36:14;5.60;;;5.40;;
5876;SDS011;2964;42.144;24.730;2023-04-25T08:38:41;5.57;;;5.18;;
5876;SDS011;2964;42.144;24.730;2023-04-25T08:41:07;5.93;;;5.53;;
5876;SDS011;2964;42.144;24.730;2023-04-25T08:43:37;5.63;;;5.32;;
5876;SDS011;2964;42.144;24.730;2023-04-25T08:46:04;6.60;;;6.20;;
5876;SDS011;2964;42.144;24.730;2023-04-25T08:48:33;6.55;;;6.15;;
5876;SDS011;2964;42.144;24.730;2023-04-25T08:51:01;6.75;;;6.35;;
5876;SDS011;2964;42.144;24.730;2023-04-25T08:53:29;12.23;;;5.87;;
5876;SDS011;2964;42.144;24.730;2023-04-25T08:55:57;7.80;;;7.40;;
5876;SDS011;2964;42.144;24.730;2023-04-25T08:58:26;10.30;;;6.47;;
5876;SDS011;2964;42.144;24.730;2023-04-25T09:00:53;9.30;;;7.70;;
5876;SDS011;2964;42.144;24.730;2023-04-25T09:03:20;20.70;;;8.20;;
5876;SDS011;2964;42.144;24.730;2023-04-25T09:05:48;6.87;;;6.20;;
5876;SDS011;2964;42.144;24.730;2023-04-25T09:08:15;6.80;;;6.30;;
5876;SDS011;2964;42.144;24.730;2023-04-25T09:10:42;7.87;;;7.23;;
5876;SDS011;2964;42.144;24.730;2023-04-25T09:13:09;7.83;;;7.17;;
5876;SDS011;2964;42.144;24.730;2023-04-25T09:15:47;7.00;;;6.40;;
5876;SDS011;2964;42.144;24.730;2023-04-25T09:18:21;7.37;;;6.87;;
5876;SDS011;2964;42.144;24.730;2023-04-25T09:20:51;7.57;;;6.90;;
5876;SDS011;2964;42.144;24.730;2023-04-25T09:23:18;7.17;;;6.77;;
5876;SDS011;2964;42.144;24.730;2023-04-25T09:25:47;8.03;;;7.47;;
5876;SDS011;2964;42.144;24.730;2023-04-25T09:28:14;7.43;;;7.03;;
5876;SDS011;2964;42.144;24.730;2023-04-25T09:30:41;7.37;;;6.87;;
5876;SDS011;2964;42.144;24.730;2023-04-25T09:33:08;9.23;;;7.67;;
5876;SDS011;2964;42.144;24.730;2023-04-25T09:35:36;8.33;;;7.73;;
5876;SDS011;2964;42.144;24.730;2023-04-25T09:38:09;8.53;;;8.03;;
5876;SDS011;2964;42.144;24.730;2023-04-25T09:40:40;8.43;;;7.87;;
5876;SDS011;2964;42.144;24.730;2023-04-25T09:43:10;8.60;;;8.20;;
5876;SDS011;2964;42.144;24.730;2023-04-25T09:45:45;9.57;;;8.80;;
5876;SDS011;2964;42.144;24.730;2023-04-25T09:48:15;7.88;;;7.47;;
5876;SDS011;2964;42.144;24.730;2023-04-25T09:50:43;7.93;;;7.38;;
5876;SDS011;2964;42.144;24.730;2023-04-25T09:53:12;8.02;;;7.35;;
5876;SDS011;2964;42.144;24.730;2023-04-25T09:55:40;8.75;;;8.02;;
5876;SDS011;2964;42.144;24.730;2023-04-25T09:58:09;8.55;;;7.80;;
5876;SDS011;2964;42.144;24.730;2023-04-25T10:00:37;9.73;;;8.80;;
5876;SDS011;2964;42.144;24.730;2023-04-25T10:03:05;7.85;;;7.45;;
5876;SDS011;2964;42.144;24.730;2023-04-25T10:05:32;8.15;;;7.55;;
5876;SDS011;2964;42.144;24.730;2023-04-25T10:08:03;8.43;;;7.78;;
5876;SDS011;2964;42.144;24.730;2023-04-25T10:10:31;9.18;;;8.43;;
5876;SDS011;2964;42.144;24.730;2023-04-25T10:13:02;8.20;;;7.70;;
5876;SDS011;2964;42.144;24.730;2023-04-25T10:15:30;6.95;;;6.65;;
5876;SDS011;2964;42.144;24.730;2023-04-25T10:18:00;7.43;;;7.13;;
5876;SDS011;2964;42.144;24.730;2023-04-25T10:20:27;7.93;;;7.43;;
5876;SDS011;2964;42.144;24.730;2023-04-25T10:22:55;8.60;;;8.03;;
5876;SDS011;2964;42.144;24.730;2023-04-25T10:25:31;7.80;;;7.37;;
5876;SDS011;2964;42.144;24.730;2023-04-25T10:27:59;7.20;;;6.90;;
5876;SDS011;2964;42.144;24.730;2023-04-25T10:30:27;7.33;;;6.73;;
5876;SDS011;2964;42.144;24.730;2023-04-25T10:32:54;9.43;;;7.67;;
5876;SDS011;2964;42.144;24.730;2023-04-25T10:35:25;7.50;;;6.80;;
5876;SDS011;2964;42.144;24.730;2023-04-25T10:37:57;7.47;;;6.93;;
5876;SDS011;2964;42.144;24.730;2023-04-25T10:40:24;7.60;;;7.10;;
5876;SDS011;2964;42.144;24.730;2023-04-25T10:42:53;6.87;;;6.40;;
5876;SDS011;2964;42.144;24.730;2023-04-25T10:45:20;7.67;;;7.27;;
5876;SDS011;2964;42.144;24.730;2023-04-25T10:47:47;7.37;;;6.87;;
5876;SDS011;2964;42.144;24.730;2023-04-25T10:50:14;7.37;;;6.87;;
5876;SDS011;2964;42.144;24.730;2023-04-25T10:52:41;6.57;;;6.27;;
5876;SDS011;2964;42.144;24.730;2023-04-25T10:55:08;9.57;;;8.90;;
5876;SDS011;2964;42.144;24.730;2023-04-25T10:57:38;7.30;;;6.97;;
5876;SDS011;2964;42.144;24.730;2023-04-25T11:00:09;6.17;;;5.87;;
5876;SDS011;2964;42.144;24.730;2023-04-25T11:02:43;6.53;;;6.10;;
5876;SDS011;2964;42.144;24.730;2023-04-25T11:05:16;7.27;;;6.47;;
5876;SDS011;2964;42.144;24.730;2023-04-25T11:07:49;6.47;;;6.17;;
5876;SDS011;2964;42.144;24.730;2023-04-25T11:10:18;8.20;;;7.50;;
5876;SDS011;2964;42.144;24.730;2023-04-25T11:12:45;6.57;;;6.17;;
5876;SDS011;2964;42.144;24.730;2023-04-25T11:15:13;6.70;;;5.33;;
5876;SDS011;2964;42.144;24.730;2023-04-25T11:17:40;5.67;;;5.33;;
5876;SDS011;2964;42.144;24.730;2023-04-25T11:20:08;5.23;;;4.93;;
5876;SDS011;2964;42.144;24.730;2023-04-25T11:22:37;5.57;;;5.23;;
5876;SDS011;2964;42.144;24.730;2023-04-25T11:25:04;7.20;;;6.80;;
5876;SDS011;2964;42.144;24.730;2023-04-25T11:27:32;5.40;;;5.10;;
5876;SDS011;2964;42.144;24.730;2023-04-25T11:30:09;5.53;;;5.13;;
5876;SDS011;2964;42.144;24.730;2023-04-25T11:32:37;5.47;;;5.07;;
5876;SDS011;2964;42.144;24.730;2023-04-25T11:35:06;4.83;;;4.53;;
5876;SDS011;2964;42.144;24.730;2023-04-25T11:37:33;5.20;;;4.93;;
5876;SDS011;2964;42.144;24.730;2023-04-25T11:40:00;6.07;;;5.53;;
5876;SDS011;2964;42.144;24.730;2023-04-25T11:42:27;6.87;;;6.40;;
5876;SDS011;2964;42.144;24.730;2023-04-25T11:44:53;7.67;;;7.10;;
5876;SDS011;2964;42.144;24.730;2023-04-25T11:47:26;4.80;;;4.60;;
5876;SDS011;2964;42.144;24.730;2023-04-25T11:49:56;6.63;;;6.03;;
5876;SDS011;2964;42.144;24.730;2023-04-25T11:52:24;8.13;;;7.43;;
5876;SDS011;2964;42.144;24.730;2023-04-25T11:54:50;8.63;;;7.93;;
5876;SDS011;2964;42.144;24.730;2023-04-25T11:57:18;7.97;;;7.30;;
5876;SDS011;2964;42.144;24.730;2023-04-25T11:59:45;11.37;;;10.40;;
5876;SDS011;2964;42.144;24.730;2023-04-25T12:02:23;9.77;;;8.87;;
5876;SDS011;2964;42.144;24.730;2023-04-25T12:04:50;8.83;;;8.13;;
5876;SDS011;2964;42.144;24.730;2023-04-25T12:07:18;8.13;;;7.43;;
5876;SDS011;2964;42.144;24.730;2023-04-25T12:09:51;10.30;;;9.60;;
5876;SDS011;2964;42.144;24.730;2023-04-25T12:12:17;10.87;;;9.87;;
5876;SDS011;2964;42.144;24.730;2023-04-25T12:14:46;9.90;;;9.10;;
5876;SDS011;2964;42.144;24.730;2023-04-25T12:17:13;8.63;;;8.00;;
5876;SDS011;2964;42.144;24.730;2023-04-25T12:19:40;9.37;;;8.77;;
5876;SDS011;2964;42.144;24.730;2023-04-25T12:22:20;12.27;;;9.50;;
5876;SDS011;2964;42.144;24.730;2023-04-25T12:24:48;14.77;;;13.37;;
5876;SDS011;2964;42.144;24.730;2023-04-25T12:27:15;8.90;;;8.23;;
5876;SDS011;2964;42.144;24.730;2023-04-25T12:29:49;9.13;;;8.43;;
5876;SDS011;2964;42.144;24.730;2023-04-25T12:32:17;8.03;;;7.43;;
5876;SDS011;2964;42.144;24.730;2023-04-25T12:34:43;10.10;;;9.13;;
5876;SDS011;2964;42.144;24.730;2023-04-25T12:37:11;11.67;;;10.70;;
5876;SDS011;2964;42.144;24.730;2023-04-25T12:39:39;7.83;;;7.33;;
5876;SDS011;2964;42.144;24.730;2023-04-25T12:42:06;8.03;;;7.37;;
5876;SDS011;2964;42.144;24.730;2023-04-25T12:44:36;8.37;;;7.73;;
5876;SDS011;2964;42.144;24.730;2023-04-25T12:47:03;9.73;;;8.90;;
5876;SDS011;2964;42.144;24.730;2023-04-25T12:49:30;9.17;;;8.37;;
5876;SDS011;2964;42.144;24.730;2023-04-25T12:51:58;9.40;;;8.23;;
5876;SDS011;2964;42.144;24.730;2023-04-25T12:54:24;9.70;;;7.10;;
5876;SDS011;2964;42.144;24.730;2023-04-25T12:56:53;10.73;;;9.67;;
5876;SDS011;2964;42.144;24.730;2023-04-25T12:59:20;8.30;;;7.50;;
5876;SDS011;2964;42.144;24.730;2023-04-25T13:01:46;6.83;;;6.20;;
5876;SDS011;2964;42.144;24.730;2023-04-25T13:04:13;7.67;;;6.90;;
5876;SDS011;2964;42.144;24.730;2023-04-25T13:06:39;6.10;;;5.70;;
5876;SDS011;2964;42.144;24.730;2023-04-25T13:09:06;5.47;;;5.00;;
5876;SDS011;2964;42.144;24.730;2023-04-25T13:11:33;6.60;;;6.20;;
5876;SDS011;2964;42.144;24.730;2023-04-25T13:14:01;5.50;;;5.20;;
5876;SDS011;2964;42.144;24.730;2023-04-25T13:16:28;5.43;;;5.13;;
5876;SDS011;2964;42.144;24.730;2023-04-25T13:18:55;5.47;;;5.20;;
5876;SDS011;2964;42.144;24.730;2023-04-25T13:21:22;5.07;;;4.87;;
5876;SDS011;2964;42.144;24.730;2023-04-25T13:23:48;5.87;;;5.40;;
5876;SDS011;2964;42.144;24.730;2023-04-25T13:26:15;5.90;;;5.47;;
5876;SDS011;2964;42.144;24.730;2023-04-25T13:28:42;5.50;;;5.10;;
5876;SDS011;2964;42.144;24.730;2023-04-25T13:31:10;6.83;;;6.27;;
5876;SDS011;2964;42.144;24.730;2023-04-25T13:33:36;4.27;;;4.07;;
5876;SDS011;2964;42.144;24.730;2023-04-25T13:36:03;5.47;;;5.27;;
5876;SDS011;2964;42.144;24.730;2023-04-25T13:38:30;4.43;;;4.17;;
5876;SDS011;2964;42.144;24.730;2023-04-25T13:40:57;7.70;;;4.73;;
5876;SDS011;2964;42.144;24.730;2023-04-25T13:43:23;3.83;;;3.67;;
5876;SDS011;2964;42.144;24.730;2023-04-25T13:45:50;5.30;;;5.10;;
5876;SDS011;2964;42.144;24.730;2023-04-25T13:48:18;5.53;;;5.23;;
5876;SDS011;2964;42.144;24.730;2023-04-25T13:50:45;5.60;;;5.40;;
5876;SDS011;2964;42.144;24.730;2023-04-25T13:53:12;5.63;;;4.90;;
5876;SDS011;2964;42.144;24.730;2023-04-25T13:55:39;4.90;;;4.60;;
5876;SDS011;2964;42.144;24.730;2023-04-25T13:58:06;4.80;;;4.50;;
5876;SDS011;2964;42.144;24.730;2023-04-25T14:00:35;4.90;;;4.50;;
5876;SDS011;2964;42.144;24.730;2023-04-25T14:03:03;4.93;;;4.60;;
5876;SDS011;2964;42.144;24.730;2023-04-25T14:05:33;4.90;;;4.10;;
5876;SDS011;2964;42.144;24.730;2023-04-25T14:08:04;4.83;;;4.43;;
5876;SDS011;2964;42.144;24.730;2023-04-25T14:10:32;4.10;;;3.80;;
5876;SDS011;2964;42.144;24.730;2023-04-25T14:12:58;4.90;;;4.60;;
5876;SDS011;2964;42.144;24.730;2023-04-25T14:15:25;6.83;;;5.30;;
5876;SDS011;2964;42.144;24.730;2023-04-25T14:17:52;6.43;;;4.60;;
5876;SDS011;2964;42.144;24.730;2023-04-25T14:20:19;5.57;;;4.20;;
5876;SDS011;2964;42.144;24.730;2023-04-25T14:22:47;5.30;;;5.10;;
5876;SDS011;2964;42.144;24.730;2023-04-25T14:25:14;5.53;;;5.07;;
5876;SDS011;2964;42.144;24.730;2023-04-25T14:27:41;5.50;;;4.77;;
5876;SDS011;2964;42.144;24.730;2023-04-25T14:30:09;4.07;;;3.63;;
5876;SDS011;2964;42.144;24.730;2023-04-25T14:32:36;11.40;;;4.90;;
5876;SDS011;2964;42.144;24.730;2023-04-25T14:35:04;6.90;;;4.57;;
5876;SDS011;2964;42.144;24.730;2023-04-25T14:37:32;4.70;;;4.50;;
5876;SDS011;2964;42.144;24.730;2023-04-25T14:40:00;5.60;;;5.07;;
5876;SDS011;2964;42.144;24.730;2023-04-25T14:42:27;4.83;;;4.43;;
5876;SDS011;2964;42.144;24.730;2023-04-25T14:44:53;8.07;;;5.00;;
5876;SDS011;2964;42.144;24.730;2023-04-25T14:47:20;4.93;;;4.73;;
5876;SDS011;2964;42.144;24.730;2023-04-25T14:49:46;5.10;;;4.77;;
5876;SDS011;2964;42.144;24.730;2023-04-25T14:52:19;5.20;;;5.00;;
5876;SDS011;2964;42.144;24.730;2023-04-25T14:54:45;4.20;;;4.10;;